Time;durP1;ratioP1;P1;durP2;ratioP2;P2;SDS_P1;SDS_P2;PMS_P1;PMS_P2;Temp;Humidity;BMP_temperature;BMP_pressure;BME280_temperature;BME280_humidity;BME280_pressure;Samples;Min_cycle;Max_cycle;Signal;HPM_P1;HPM_P2
2023/07/23 00:00:35;;;;;;;;;1.33;1.33;;;;;22.89;67.29;100868.97;5033022;28;45530;-82
2023/07/23 00:03:01;;;;;;;;;2.00;1.00;;;;;22.83;67.87;100864.66;5023460;28;47452;-82
2023/07/23 00:05:26;;;;;;;;;3.00;1.00;;;;;22.82;68.33;100860.22;5031250;28;45351;-84
2023/07/23 00:07:56;;;;;;;;;3.00;1.00;;;;;22.78;69.36;100857.72;5025290;28;45444;-82
2023/07/23 00:10:22;;;;;;;;;1.00;1.00;;;;;22.75;69.29;100858.72;5025573;28;45498;-82
2023/07/23 00:12:47;;;;;;;;;3.00;1.00;;;;;22.74;69.36;100857.84;5034828;28;45272;-82
2023/07/23 00:15:12;;;;;;;;;2.33;2.00;;;;;22.71;69.51;100851.69;5031871;28;67618;-82
2023/07/23 00:17:39;;;;;;;;;2.67;2.67;;;;;22.72;70.10;100850.75;5025458;28;45201;-83
2023/07/23 00:20:08;;;;;;;;;1.00;1.00;;;;;22.71;70.88;100844.50;5036182;28;45305;-82
2023/07/23 00:22:33;;;;;;;;;1.00;1.00;;;;;22.71;70.64;100849.00;5035635;28;46621;-83
2023/07/23 00:24:59;;;;;;;;;0.33;0.33;;;;;22.70;71.68;100844.56;5022881;28;45333;-81
2023/07/23 00:27:24;;;;;;;;;2.00;2.00;;;;;22.66;71.47;100845.59;5025476;28;45336;-82
2023/07/23 00:29:50;;;;;;;;;1.67;1.67;;;;;22.64;73.26;100853.75;5026593;28;62552;-83
2023/07/23 00:32:15;;;;;;;;;1.33;1.00;;;;;22.57;73.46;100838.75;5024838;28;71592;-82
2023/07/23 00:34:40;;;;;;;;;1.00;1.00;;;;;22.53;73.41;100850.59;5034470;28;64142;-82
2023/07/23 00:37:06;;;;;;;;;0.00;0.00;;;;;22.52;74.00;100842.56;5022300;28;56296;-82
2023/07/23 00:39:31;;;;;;;;;1.00;1.00;;;;;22.49;75.00;100840.88;5026757;28;45654;-82
2023/07/23 00:41:56;;;;;;;;;1.00;1.00;;;;;22.46;75.55;100836.47;5025755;28;67448;-82
2023/07/23 00:44:22;;;;;;;;;1.33;1.33;;;;;22.43;76.54;100841.13;5025581;28;63860;-85
2023/07/23 00:46:47;;;;;;;;;3.00;2.00;;;;;22.42;76.96;100832.13;5025741;28;63499;-82
2023/07/23 00:49:13;;;;;;;;;2.00;2.00;;;;;22.40;77.06;100831.34;5030076;28;55190;-82
2023/07/23 00:51:38;;;;;;;;;3.00;1.00;;;;;22.42;77.37;100828.56;5033351;28;46371;-82
2023/07/23 00:54:04;;;;;;;;;1.33;1.33;;;;;22.42;77.29;100826.75;5026029;28;45265;-82
2023/07/23 00:56:30;;;;;;;;;2.00;1.00;;;;;22.41;78.66;100816.94;5015133;28;59618;-84
2023/07/23 00:58:56;;;;;;;;;1.00;1.00;;;;;22.40;78.39;100820.56;5035213;28;59131;-83
2023/07/23 01:01:21;;;;;;;;;0.67;0.67;;;;;22.40;78.87;100809.81;5020420;28;45498;-82
2023/07/23 01:03:46;;;;;;;;;3.00;2.00;;;;;22.40;78.99;100808.94;5033258;28;67317;-84
2023/07/23 01:06:13;;;;;;;;;2.00;2.00;;;;;22.40;79.64;100817.88;5032554;28;63174;-82
2023/07/23 01:08:41;;;;;;;;;1.00;1.00;;;;;22.39;79.38;100812.56;5030659;28;45491;-82
2023/07/23 01:11:07;;;;;;;;;1.00;1.00;;;;;22.40;80.02;100809.81;5033880;28;46077;-83
2023/07/23 01:13:34;;;;;;;;;1.00;1.00;;;;;22.39;80.41;100805.38;5053415;28;48144;-84
2023/07/23 01:16:03;;;;;;;;;2.00;2.00;;;;;22.38;80.98;100794.69;5033242;28;45926;-83
2023/07/23 01:18:28;;;;;;;;;3.00;2.00;;;;;22.36;80.75;100794.72;5029116;28;45347;-83
2023/07/23 01:20:55;;;;;;;;;3.67;3.67;;;;;22.33;81.89;100797.53;5036770;28;46454;-82
2023/07/23 01:23:21;;;;;;;;;1.00;1.00;;;;;22.34;82.38;100793.91;5030565;28;45218;-82
2023/07/23 01:25:46;;;;;;;;;2.00;2.00;;;;;22.31;81.30;100783.25;5029017;28;45710;-82
2023/07/23 01:28:11;;;;;;;;;3.67;3.00;;;;;22.34;81.26;100782.28;5033499;28;64470;-82
2023/07/23 01:30:37;;;;;;;;;2.33;2.00;;;;;22.35;81.21;100771.44;5037727;28;63265;-83
2023/07/23 01:33:04;;;;;;;;;1.00;1.00;;;;;22.37;81.38;100777.66;5025365;28;61723;-83
2023/07/23 01:35:29;;;;;;;;;3.33;2.00;;;;;22.35;81.78;100768.75;5031847;28;45320;-83
2023/07/23 01:37:56;;;;;;;;;1.00;1.00;;;;;22.38;81.54;100759.69;5023839;28;60513;-81
2023/07/23 01:40:21;;;;;;;;;2.00;2.00;;;;;22.37;81.41;100753.44;5018456;28;70544;-82
2023/07/23 01:42:47;;;;;;;;;2.67;2.00;;;;;22.36;82.12;100753.47;5026912;28;45373;-82
2023/07/23 01:45:13;;;;;;;;;2.00;1.67;;;;;22.32;81.90;100757.22;5031251;28;62621;-82
2023/07/23 01:47:39;;;;;;;;;4.00;1.67;;;;;22.30;81.87;100754.59;5027603;28;45526;-83
2023/07/23 01:50:05;;;;;;;;;1.00;1.00;;;;;22.30;82.76;100745.66;5034333;28;68217;-84
2023/07/23 01:52:30;;;;;;;;;1.33;1.33;;;;;22.29;83.12;100757.34;5019756;28;45226;-85
2023/07/23 01:54:55;;;;;;;;;4.00;1.00;;;;;22.26;83.01;100752.97;5030532;28;46224;-84
2023/07/23 01:57:21;;;;;;;;;1.00;1.00;;;;;22.26;83.23;100749.41;5021163;28;58481;-82
2023/07/23 01:59:47;;;;;;;;;2.00;2.00;;;;;22.22;83.98;100754.03;5021036;28;68758;-82
2023/07/23 02:02:12;;;;;;;;;3.67;2.00;;;;;22.23;84.04;100763.84;5037798;28;45201;-83
2023/07/23 02:04:38;;;;;;;;;1.00;1.00;;;;;22.19;84.48;100743.38;5018888;28;45682;-85
2023/07/23 02:07:03;;;;;;;;;3.33;2.00;;;;;22.20;84.42;100750.50;5005941;28;63445;-82
2023/07/23 02:09:29;;;;;;;;;2.00;2.00;;;;;22.20;84.81;100755.88;5020019;28;46440;-84
2023/07/23 02:11:54;;;;;;;;;1.00;1.00;;;;;22.16;84.75;100746.22;5037083;28;66490;-84
2023/07/23 02:14:19;;;;;;;;;3.33;2.00;;;;;22.17;84.51;100753.34;5033739;28;63295;-83
2023/07/23 02:16:45;;;;;;;;;3.00;2.00;;;;;22.17;84.85;100758.72;5023537;28;59234;-83
2023/07/23 02:19:12;;;;;;;;;3.33;2.00;;;;;22.13;85.49;100751.69;5029857;28;67898;-84
2023/07/23 02:21:38;;;;;;;;;2.00;2.00;;;;;22.12;85.82;100763.38;5016623;28;46292;-83
2023/07/23 02:24:04;;;;;;;;;1.33;1.00;;;;;22.05;85.28;100749.28;5019779;28;45520;-82
2023/07/23 02:26:30;;;;;;;;;1.00;1.00;;;;;22.00;85.85;100742.28;5030216;28;45438;-82
2023/07/23 02:28:55;;;;;;;;;3.00;3.00;;;;;22.06;85.54;100745.63;5016688;28;66597;-82
2023/07/23 02:31:20;;;;;;;;;2.00;2.00;;;;;22.07;85.84;100741.13;5024794;28;45816;-82
2023/07/23 02:33:46;;;;;;;;;1.67;1.67;;;;;22.08;87.00;100729.44;5030435;28;45545;-83
2023/07/23 02:36:11;;;;;;;;;2.00;2.00;;;;;22.06;86.67;100734.88;5037177;28;45682;-82
2023/07/23 02:38:36;;;;;;;;;2.00;2.00;;;;;22.03;87.28;100748.44;5020651;28;47545;-82
2023/07/23 02:41:02;;;;;;;;;4.33;2.00;;;;;21.94;88.89;100729.94;5030707;28;45732;-84
2023/07/23 02:43:27;;;;;;;;;3.00;3.00;;;;;21.90;88.91;100734.59;5023302;28;53127;-82
2023/07/23 02:45:53;;;;;;;;;2.67;2.00;;;;;21.91;89.00;100730.09;5021806;28;64380;-82
2023/07/23 02:48:18;;;;;;;;;3.33;2.00;;;;;21.92;89.81;100734.53;5035193;28;69544;-83
2023/07/23 02:50:44;;;;;;;;;2.33;2.00;;;;;21.91;89.87;100725.59;5027084;28;67820;-82
2023/07/23 02:53:09;;;;;;;;;2.33;2.00;;;;;21.94;91.58;100746.09;5035054;28;49816;-82
2023/07/23 02:55:34;;;;;;;;;1.00;1.00;;;;;21.93;93.22;100734.44;5025218;28;45415;-81
2023/07/23 02:58:03;;;;;;;;;3.33;3.00;;;;;21.91;92.72;100730.97;5035788;28;46688;-81
2023/07/23 03:00:28;;;;;;;;;1.33;1.33;;;;;21.88;93.31;100732.88;5016073;28;45370;-82
2023/07/23 03:02:54;;;;;;;;;1.00;1.00;;;;;21.89;93.56;100726.56;5021486;28;45335;-82
2023/07/23 03:05:20;;;;;;;;;1.00;1.00;;;;;21.87;94.66;100717.69;5036097;28;45383;-82
2023/07/23 03:07:45;;;;;;;;;4.00;3.00;;;;;21.89;94.61;100729.25;5022115;28;45591;-82
2023/07/23 03:10:10;;;;;;;;;2.00;2.00;;;;;21.85;94.99;100723.13;5017027;28;45545;-83
2023/07/23 03:12:36;;;;;;;;;2.00;2.00;;;;;21.88;95.51;100722.13;5028294;28;45453;-85
2023/07/23 03:15:01;;;;;;;;;1.00;1.00;;;;;21.86;96.97;100711.44;5021654;28;57405;-81
2023/07/23 03:17:27;;;;;;;;;2.33;1.00;;;;;21.84;97.20;100717.78;5028433;28;71185;-84
2023/07/23 03:19:52;;;;;;;;;2.67;2.67;;;;;21.80;98.26;100721.53;5033739;28;45402;-82
2023/07/23 03:22:18;;;;;;;;;1.00;1.00;;;;;21.75;98.65;100720.84;5019645;28;59991;-82
2023/07/23 03:24:44;;;;;;;;;1.00;1.00;;;;;21.74;99.33;100730.72;5025205;28;45470;-81
2023/07/23 03:27:09;;;;;;;;;2.33;2.33;;;;;21.74;99.26;100721.78;5022391;28;45384;-81
2023/07/23 03:29:34;;;;;;;;;3.67;2.00;;;;;21.72;98.95;100721.81;5022337;28;45213;-82
2023/07/23 03:32:00;;;;;;;;;2.00;2.00;;;;;21.72;99.56;100716.44;5013580;28;45221;-82
2023/07/23 03:34:25;;;;;;;;;3.00;3.00;;;;;21.72;99.80;100713.75;5035762;28;60544;-82
2023/07/23 03:36:51;;;;;;;;;3.00;1.33;;;;;21.75;100.00;100712.78;5030316;28;68060;-82
2023/07/23 03:39:18;;;;;;;;;1.00;1.00;;;;;21.74;100.00;100714.59;5027398;28;45640;-83
2023/07/23 03:41:45;;;;;;;;;2.00;2.00;;;;;21.71;100.00;100714.69;5016218;28;45450;-84
2023/07/23 03:44:10;;;;;;;;;2.67;1.67;;;;;21.70;100.00;100704.88;5028143;28;45472;-82
2023/07/23 03:47:02;;;;;;;;;3.00;2.00;;;;;21.68;100.00;100698.69;5035605;28;68208;-83
2023/07/23 03:49:28;;;;;;;;;2.00;2.00;;;;;21.65;100.00;100701.47;5011678;28;45452;-82
2023/07/23 03:51:53;;;;;;;;;1.00;1.00;;;;;21.65;100.00;100705.03;5020594;28;63679;-81
2023/07/23 03:54:19;;;;;;;;;3.00;3.00;;;;;21.62;100.00;100697.06;5029715;28;45622;-82
2023/07/23 03:56:44;;;;;;;;;2.33;1.67;;;;;21.62;100.00;100697.06;5022931;28;47533;-83
2023/07/23 03:59:09;;;;;;;;;2.00;2.00;;;;;21.63;100.00;100682.75;5033431;28;66096;-82
2023/07/23 04:01:34;;;;;;;;;4.00;2.67;;;;;21.63;100.00;100681.88;5032206;28;62504;-82
2023/07/23 04:04:00;;;;;;;;;2.33;1.33;;;;;21.58;100.00;100682.03;5030634;28;56877;-83
2023/07/23 04:06:26;;;;;;;;;4.00;2.00;;;;;21.58;100.00;100689.22;5031234;28;46804;-84
2023/07/23 04:08:51;;;;;;;;;2.00;2.00;;;;;21.57;100.00;100688.34;5019073;28;45476;-82
2023/07/23 04:11:17;;;;;;;;;1.33;1.33;;;;;21.54;100.00;100688.44;5021826;28;63542;-82
2023/07/23 04:13:42;;;;;;;;;4.00;4.00;;;;;21.55;100.00;100679.44;5022469;28;63167;-83
2023/07/23 04:16:11;;;;;;;;;2.00;2.00;;;;;21.57;100.00;100684.75;5020984;28;45852;-83
2023/07/23 04:18:49;;;;;;;;;2.67;2.67;;;;;21.56;100.00;100674.94;5027206;28;45284;-83
2023/07/23 04:21:18;;;;;;;;;2.00;2.00;;;;;21.56;100.00;100674.94;5023254;28;45386;-82
2023/07/23 04:23:47;;;;;;;;;2.00;2.00;;;;;21.54;100.00;100683.06;5035242;28;45672;-82
2023/07/23 04:26:13;;;;;;;;;2.00;2.00;;;;;21.55;100.00;100678.56;5022298;28;47874;-82
2023/07/23 04:28:39;;;;;;;;;4.00;3.00;;;;;21.50;100.00;100673.34;5033233;28;45320;-83
2023/07/23 04:31:04;;;;;;;;;2.67;2.67;;;;;21.50;100.00;100665.28;5027206;28;62044;-84
2023/07/23 04:33:29;;;;;;;;;3.67;2.33;;;;;21.50;100.00;100667.09;5029105;28;62152;-81
2023/07/23 04:35:55;;;;;;;;;4.00;3.00;;;;;21.48;100.00;100671.69;5034424;28;69377;-83
2023/07/23 04:38:20;;;;;;;;;3.00;1.33;;;;;21.47;100.00;100670.81;5034711;28;64505;-82
2023/07/23 04:40:48;;;;;;;;;3.00;3.00;;;;;21.46;100.00;100663.66;5035744;28;45241;-82
2023/07/23 04:43:14;;;;;;;;;3.67;3.00;;;;;21.47;100.00;100662.75;5031825;28;45674;-82
2023/07/23 04:45:39;;;;;;;;;2.00;2.00;;;;;21.48;100.00;100671.69;5025236;28;46910;-82
2023/07/23 04:48:05;;;;;;;;;2.67;2.00;;;;;21.47;100.00;100667.25;5032022;28;68056;-82
2023/07/23 04:50:30;;;;;;;;;2.00;2.00;;;;;21.48;100.00;100656.44;5017943;28;45327;-83
2023/07/23 04:52:55;;;;;;;;;3.00;3.00;;;;;21.49;100.00;100665.38;5018963;28;62008;-82
2023/07/23 04:55:21;;;;;;;;;2.00;2.00;;;;;21.50;100.00;100678.72;5017126;28;67801;-82
2023/07/23 04:57:46;;;;;;;;;5.00;3.67;;;;;21.52;100.00;100673.28;5030321;28;58533;-82
2023/07/23 05:00:12;;;;;;;;;4.00;3.00;;;;;21.51;100.00;100679.59;5035478;28;55994;-82
2023/07/23 05:02:37;;;;;;;;;2.33;2.33;;;;;21.51;100.00;100676.91;5031321;28;45369;-82
2023/07/23 05:05:03;;;;;;;;;3.00;2.00;;;;;21.48;100.00;100675.22;5032603;28;53262;-82
2023/07/23 05:07:28;;;;;;;;;4.33;3.00;;;;;21.52;100.00;100668.81;5038622;28;46257;-85
2023/07/23 05:09:53;;;;;;;;;3.67;2.00;;;;;21.52;100.00;100657.16;5038286;28;62411;-83
2023/07/23 05:12:19;;;;;;;;;2.00;2.00;;;;;21.56;100.00;100674.94;5025897;28;58503;-82
2023/07/23 05:14:47;;;;;;;;;2.00;2.00;;;;;21.56;100.00;100658.81;5030850;28;70311;-82
2023/07/23 05:17:13;;;;;;;;;2.67;2.67;;;;;21.61;100.00;100660.41;5141421;22;45930;-83
2023/07/23 05:19:39;;;;;;;;;4.00;4.00;;;;;21.62;100.00;100653.22;5049818;28;45466;-83
2023/07/23 05:22:05;;;;;;;;;3.00;3.00;;;;;21.68;100.00;100655.69;5051491;28;45324;-83
2023/07/23 05:24:30;;;;;;;;;2.00;2.00;;;;;21.69;100.00;100644.00;5051727;28;46771;-82
2023/07/23 05:26:55;;;;;;;;;3.00;2.00;;;;;21.70;100.00;100645.75;5056092;28;65110;-83
2023/07/23 05:29:21;;;;;;;;;4.00;2.00;;;;;21.68;100.00;100647.63;5046240;28;50262;-82
2023/07/23 05:31:46;;;;;;;;;3.00;2.00;;;;;21.70;100.00;100665.44;5058324;28;47531;-82
2023/07/23 05:34:11;;;;;;;;;1.00;1.00;;;;;21.65;100.00;100648.59;5056897;28;66858;-84
2023/07/23 05:36:37;;;;;;;;;2.00;2.00;;;;;21.64;100.00;100657.63;5058033;28;58880;-82
2023/07/23 05:39:02;;;;;;;;;2.00;2.00;;;;;21.65;100.00;100658.47;5058642;28;45189;-85
2023/07/23 05:41:28;;;;;;;;;3.00;3.00;;;;;21.65;100.00;100658.47;5051590;28;45544;-82
2023/07/23 05:43:53;;;;;;;;;2.33;2.33;;;;;21.62;100.00;100663.97;5057198;28;70006;-82
2023/07/23 05:46:18;;;;;;;;;2.00;2.00;;;;;21.64;100.00;100680.91;5057675;28;45194;-85
2023/07/23 05:48:44;;;;;;;;;2.00;2.00;;;;;21.64;100.00;100667.47;5058167;28;45439;-86
2023/07/23 05:51:09;;;;;;;;;3.00;3.00;;;;;21.61;100.00;100664.91;5058087;28;45137;-83
2023/07/23 05:53:34;;;;;;;;;2.00;2.00;;;;;21.64;100.00;100668.34;5057431;28;55612;-83
2023/07/23 05:56:00;;;;;;;;;2.00;2.00;;;;;21.66;100.00;100670.97;5057468;28;67292;-82
2023/07/23 05:58:27;;;;;;;;;4.33;3.00;;;;;21.65;100.00;100664.72;5055489;28;64854;-83
2023/07/23 06:00:53;;;;;;;;;3.33;2.00;;;;;21.68;100.00;100661.94;5058290;28;45375;-85
2023/07/23 06:03:18;;;;;;;;;2.00;2.00;;;;;21.77;100.00;100675.94;5056713;28;47457;-84
2023/07/23 06:05:43;;;;;;;;;2.33;2.00;;;;;21.78;100.00;100667.81;5057233;28;62998;-83
2023/07/23 06:08:09;;;;;;;;;2.00;2.00;;;;;21.80;100.00;100659.72;5057771;28;54123;-83
2023/07/23 06:10:34;;;;;;;;;3.67;1.00;;;;;21.83;100.00;100663.16;5056041;28;57754;-82
2023/07/23 06:12:59;;;;;;;;;4.00;3.00;;;;;21.83;100.00;100671.22;5056871;28;72176;-83
2023/07/23 06:15:25;;;;;;;;;2.00;2.00;;;;;21.84;100.00;100667.63;5059219;28;45315;-83
2023/07/23 06:17:50;;;;;;;;;2.00;2.00;;;;;21.84;100.00;100667.63;5052625;28;45265;-83
2023/07/23 06:20:15;;;;;;;;;3.33;3.00;;;;;21.82;100.00;100673.97;5054629;28;45360;-85
2023/07/23 06:22:41;;;;;;;;;3.00;2.33;;;;;21.81;100.00;100674.91;5055428;28;64680;-82
2023/07/23 06:25:06;;;;;;;;;2.00;2.00;;;;;21.81;100.00;100670.41;5057108;28;66077;-83
2023/07/23 06:27:32;;;;;;;;;2.00;2.00;;;;;21.78;100.00;100683.94;5057418;28;45398;-83
2023/07/23 06:29:57;;;;;;;;;4.00;2.00;;;;;21.76;100.00;100675.06;5057271;28;56646;-82
2023/07/23 06:32:22;;;;;;;;;2.00;2.00;;;;;21.75;100.00;100676.03;5054613;28;70544;-83
2023/07/23 06:34:48;;;;;;;;;4.00;3.00;;;;;21.78;100.00;100677.69;5085101;27;62385;-82
2023/07/23 06:37:13;;;;;;;;;3.00;3.00;;;;;21.81;100.00;100689.22;5056517;28;45319;-83
2023/07/23 06:39:38;;;;;;;;;2.33;2.33;;;;;21.83;100.00;100681.09;5056826;28;59684;-83
2023/07/23 06:42:04;;;;;;;;;3.00;3.00;;;;;21.84;100.00;100675.69;5055518;28;61633;-83
2023/07/23 06:44:29;;;;;;;;;2.00;2.00;;;;;21.84;100.00;100681.06;5056884;28;45276;-82
2023/07/23 06:46:57;;;;;;;;;4.00;2.00;;;;;21.84;100.00;100675.69;5056551;28;60731;-84
2023/07/23 06:49:28;;;;;;;;;2.33;2.33;;;;;21.87;100.00;100680.91;5056904;28;45394;-84
2023/07/23 06:51:53;;;;;;;;;3.00;3.00;;;;;21.90;100.00;100675.44;5057534;28;45892;-82
2023/07/23 06:54:19;;;;;;;;;2.00;2.00;;;;;21.93;100.00;100667.25;5039070;28;45283;-83
2023/07/23 06:56:44;;;;;;;;;3.00;3.00;;;;;21.92;100.00;100672.69;5056743;28;45161;-83
2023/07/23 06:59:09;;;;;;;;;2.00;2.00;;;;;21.91;100.00;100674.50;5056630;28;60979;-83
2023/07/23 07:01:35;;;;;;;;;2.00;2.00;;;;;21.92;100.00;100676.25;5055061;28;67724;-83
2023/07/23 07:04:00;;;;;;;;;2.33;2.00;;;;;21.94;100.00;100684.25;5051278;28;45280;-81
2023/07/23 07:06:25;;;;;;;;;2.00;2.00;;;;;21.91;100.00;100677.19;5047069;28;63166;-82
2023/07/23 07:08:51;;;;;;;;;4.67;3.00;;;;;21.94;100.00;100666.34;5055537;28;54999;-82
2023/07/23 07:11:16;;;;;;;;;5.00;2.00;;;;;21.97;100.00;100670.69;5054674;28;48410;-83
2023/07/23 07:13:41;;;;;;;;;2.00;2.00;;;;;22.01;100.00;100666.97;5052810;28;67383;-81
2023/07/23 07:16:07;;;;;;;;;2.67;2.67;;;;;22.08;100.00;100667.59;5059048;27;60983;-82
2023/07/23 07:18:32;;;;;;;;;4.67;2.67;;;;;22.17;100.00;100681.59;5052912;28;45252;-83
2023/07/23 07:20:59;;;;;;;;;2.00;2.00;;;;;22.31;100.00;100666.69;5052275;28;67238;-82
2023/07/23 07:23:28;;;;;;;;;1.33;1.33;;;;;22.44;100.00;100666.16;5038412;28;45486;-83
2023/07/23 07:25:55;;;;;;;;;2.00;2.00;;;;;22.55;100.00;100679.16;5042190;28;45477;-84
2023/07/23 07:28:21;;;;;;;;;2.67;2.67;;;;;22.63;100.00;100666.25;5047707;28;45459;-83
2023/07/23 07:30:46;;;;;;;;;3.00;3.00;;;;;22.72;100.00;100665.00;5047034;28;45924;-83
2023/07/23 07:33:12;;;;;;;;;3.33;2.00;;;;;22.79;100.00;100671.88;5056751;28;45415;-83
2023/07/23 07:35:37;;;;;;;;;2.00;2.00;;;;;22.87;100.00;100663.50;5056538;28;45410;-83
2023/07/23 07:38:03;;;;;;;;;3.33;2.33;;;;;22.93;100.00;100661.44;5052214;28;56772;-86
2023/07/23 07:40:29;;;;;;;;;3.00;3.00;;;;;22.96;100.00;100658.63;5048903;28;46206;-82
2023/07/23 07:42:55;;;;;;;;;4.00;2.00;;;;;23.03;100.00;100663.75;5049528;28;45327;-83
2023/07/23 07:45:20;;;;;;;;;2.67;2.00;;;;;23.10;100.00;100662.53;5051528;28;45354;-83
2023/07/23 07:47:45;;;;;;;;;3.00;3.00;;;;;23.16;100.00;100660.44;5051774;28;62177;-83
2023/07/23 07:50:11;;;;;;;;;5.00;3.00;;;;;23.25;100.00;100659.16;5055770;28;55555;-82
2023/07/23 07:52:36;;;;;;;;;2.00;2.00;;;;;23.37;100.00;100668.53;5055777;28;67310;-82
2023/07/23 07:55:02;;;;;;;;;2.67;2.67;;;;;23.46;100.00;100674.38;5054554;28;45771;-83
2023/07/23 07:57:27;;;;;;;;;2.00;2.00;;;;;23.51;100.00;100666.09;5056654;28;45431;-82
2023/07/23 07:59:53;;;;;;;;;5.33;2.33;;;;;23.57;100.00;100670.31;5037645;28;48025;-83
2023/07/23 08:02:18;;;;;;;;;3.00;3.00;;;;;23.53;100.00;100678.53;5052778;28;45403;-83
2023/07/23 08:04:44;;;;;;;;;5.00;2.00;;;;;23.53;100.00;100673.16;5041917;28;45252;-82
2023/07/23 08:07:10;;;;;;;;;4.00;2.00;;;;;23.57;100.00;100665.81;5053341;28;45618;-83
2023/07/23 08:09:36;;;;;;;;;7.00;3.00;;;;;23.58;100.00;100672.06;5054668;28;46484;-84
2023/07/23 08:12:02;;;;;;;;;3.00;3.00;;;;;23.57;100.00;100670.31;5054672;28;45247;-82
2023/07/23 08:14:28;;;;;;;;;3.00;3.00;;;;;23.54;100.00;100655.16;5056146;28;45419;-84
2023/07/23 08:16:54;;;;;;;;;3.00;3.00;;;;;23.60;100.00;100665.69;5056901;28;51645;-83
2023/07/23 08:19:20;;;;;;;;;4.33;3.00;;;;;23.69;100.00;100669.78;5055253;28;47886;-85
2023/07/23 08:21:46;;;;;;;;;2.00;2.00;;;;;23.74;100.00;100674.03;5059599;28;45385;-83
2023/07/23 08:24:12;;;;;;;;;4.00;3.00;;;;;23.80;100.00;100672.84;5059780;28;45323;-83
2023/07/23 08:26:39;;;;;;;;;3.00;3.00;;;;;23.77;100.00;100671.19;5049209;28;45233;-83
2023/07/23 08:29:08;;;;;;;;;3.67;3.67;;;;;23.75;100.00;100664.97;5055338;28;46907;-82
2023/07/23 08:31:33;;;;;;;;;3.67;2.00;;;;;23.81;100.00;100666.56;5045186;28;45341;-83
2023/07/23 08:34:02;;;;;;;;;4.00;2.00;;;;;23.86;100.00;100674.41;5052363;28;46721;-82
2023/07/23 08:36:28;;;;;;;;;2.00;2.00;;;;;23.90;100.00;100668.78;5059712;28;45470;-82
2023/07/23 08:38:53;;;;;;;;;3.00;3.00;;;;;23.94;100.00;100661.44;5059425;28;46485;-82
2023/07/23 08:41:55;;;;;;;;;2.00;2.00;;;;;23.99;100.00;100672.88;5059328;28;45499;-82
2023/07/23 08:44:39;;;;;;;;;3.00;3.00;;;;;24.03;100.00;100669.09;5033792;28;45497;-82
2023/07/23 08:47:12;;;;;;;;;2.00;2.00;;;;;24.11;100.00;100679.53;5059460;28;45475;-82
2023/07/23 08:49:39;;;;;;;;;3.67;3.67;;;;;24.13;100.00;100681.22;5057384;28;47093;-80
2023/07/23 08:52:05;;;;;;;;;1.33;1.33;;;;;24.09;100.00;100678.72;5054495;28;45465;-82
2023/07/23 08:54:32;;;;;;;;;2.00;2.00;;;;;24.02;100.00;100676.34;5057532;28;45516;-82
2023/07/23 08:56:58;;;;;;;;;3.33;2.00;;;;;23.96;100.00;100686.50;5053799;28;45334;-82
2023/07/23 08:59:26;;;;;;;;;2.00;2.00;;;;;23.89;100.00;100694.00;5040639;28;67867;-83
2023/07/23 09:01:52;;;;;;;;;2.33;1.67;;;;;23.82;100.00;100686.28;5058367;28;45419;-83
2023/07/23 09:04:17;;;;;;;;;6.67;3.00;;;;;23.79;100.00;100690.00;5058806;28;45433;-83
2023/07/23 09:06:43;;;;;;;;;3.00;3.00;;;;;23.71;100.00;100690.34;5058947;28;45490;-83
2023/07/23 09:09:10;;;;;;;;;3.00;3.00;;;;;23.66;100.00;100694.22;5058931;28;46408;-83
2023/07/23 09:11:36;;;;;;;;;3.00;3.00;;;;;23.60;100.00;100680.97;5052670;28;45434;-82
2023/07/23 09:14:13;;;;;;;;;3.67;1.67;;;;;23.50;100.00;100684.09;5047432;28;45527;-85
2023/07/23 09:16:43;;;;;;;;;3.00;1.33;;;;;23.46;100.00;100674.38;5041392;28;45441;-82
2023/07/23 09:19:09;;;;;;;;;3.33;2.00;;;;;23.48;100.00;100687.78;5053104;28;46943;-82
2023/07/23 09:21:34;;;;;;;;;2.00;2.00;;;;;23.54;100.00;100682.09;5058651;28;45440;-83
2023/07/23 09:24:04;;;;;;;;;2.67;2.67;;;;;23.62;100.00;100676.38;5058576;28;45372;-83
2023/07/23 09:26:30;;;;;;;;;2.00;2.00;;;;;23.81;100.00;100684.53;5049975;28;45628;-83
2023/07/23 09:28:57;;;;;;;;;2.00;2.00;;;;;23.97;100.00;100680.16;5042708;28;46498;-82
2023/07/23 09:31:26;;;;;;;;;4.00;3.00;;;;;24.10;100.00;100684.03;5051822;28;45556;-82
2023/07/23 09:33:56;;;;;;;;;2.67;1.00;;;;;24.15;100.00;100679.31;5055764;28;45360;-83
2023/07/23 09:36:23;;;;;;;;;3.00;1.67;;;;;24.20;100.00;100676.41;5058481;28;45328;-85
2023/07/23 09:38:59;;;;;;;;;2.67;2.00;;;;;24.24;100.00;100683.41;5058427;28;46609;-84
2023/07/23 09:41:32;;;;;;;;;3.00;3.00;;;;;24.21;100.00;100680.84;5057784;28;45391;-83
2023/07/23 09:44:11;;;;;;;;;1.33;1.33;;;;;24.14;100.00;100690.19;5056868;28;45329;-82
2023/07/23 09:46:39;;;;;;;;;3.33;2.00;;;;;24.02;100.00;100697.00;5052304;28;45646;-84
2023/07/23 09:49:04;;;;;;;;;3.00;2.33;;;;;23.94;100.00;100699.19;5057035;28;46381;-82
2023/07/23 09:51:33;;;;;;;;;2.67;2.67;;;;;23.90;100.00;100701.16;5057555;28;45498;-83
2023/07/23 09:54:03;;;;;;;;;3.00;3.00;;;;;23.86;100.00;100704.94;5058369;28;45464;-82
2023/07/23 09:56:29;;;;;;;;;2.00;2.00;;;;;23.84;100.00;100709.53;5057920;28;45143;-83
2023/07/23 09:58:54;;;;;;;;;2.00;2.00;;;;;23.80;100.00;100710.59;5057114;28;47074;-84
2023/07/23 10:01:20;;;;;;;;;3.00;3.00;;;;;23.81;100.00;100717.78;5058005;28;45363;-81
2023/07/23 10:03:48;;;;;;;;;2.33;2.33;;;;;23.76;100.00;100706.31;5057516;28;45288;-83
2023/07/23 10:06:20;;;;;;;;;3.00;3.00;;;;;23.75;100.00;100716.22;5058345;28;45236;-83
2023/07/23 10:08:46;;;;;;;;;3.00;3.00;;;;;23.72;100.00;100718.19;5057752;28;46972;-83
2023/07/23 10:11:12;;;;;;;;;2.00;2.00;;;;;23.73;100.00;100725.31;5049887;28;45475;-82
2023/07/23 10:13:39;;;;;;;;;6.00;5.00;;;;;23.73;100.00;100726.19;5056184;28;45414;-82
2023/07/23 10:16:15;;;;;;;;;7.00;5.00;;;;;23.74;100.00;100718.97;5058268;28;45430;-82
2023/07/23 10:18:41;;;;;;;;;4.00;4.00;;;;;23.78;100.00;100734.09;5054990;28;45353;-82
2023/07/23 10:21:11;;;;;;;;;2.33;2.00;;;;;23.75;100.00;100729.69;5056655;28;45393;-82
2023/07/23 10:23:39;;;;;;;;;3.00;3.00;;;;;23.76;100.00;100731.47;5056973;28;45286;-83
2023/07/23 10:26:46;;;;;;;;;6.67;6.00;;;;;23.80;100.00;100734.88;5057265;28;45425;-82
2023/07/23 10:29:14;;;;;;;;;10.00;10.00;;;;;23.82;100.00;100741.09;5026427;28;45483;-83
2023/07/23 10:31:40;;;;;;;;;30.67;22.33;;;;;23.84;100.00;100730.22;5057469;28;45256;-83
2023/07/23 10:34:27;;;;;;;;;26.33;21.67;;;;;23.86;100.00;100755.28;5057127;28;45394;-84
2023/07/23 10:37:15;;;;;;;;;16.67;13.00;;;;;23.82;100.00;100740.22;5057582;28;45304;-83
2023/07/23 10:39:41;;;;;;;;;4.67;2.00;;;;;23.76;100.00;100746.78;5049195;28;47805;-83
2023/07/23 10:42:07;;;;;;;;;4.00;4.00;;;;;23.73;100.00;100742.38;5051639;28;45490;-83
2023/07/23 10:44:32;;;;;;;;;3.67;3.00;;;;;23.74;100.00;100743.25;5055813;28;45373;-83
2023/07/23 10:46:59;;;;;;;;;7.33;4.00;;;;;23.74;100.00;100741.44;5051944;28;45419;-84
2023/07/23 10:49:27;;;;;;;;;2.33;2.33;;;;;23.70;100.00;100734.44;5055900;28;48006;-83
2023/07/23 10:51:53;;;;;;;;;5.00;3.67;;;;;23.61;100.00;100740.22;5052416;28;46150;-86
2023/07/23 10:54:20;;;;;;;;;4.67;2.67;;;;;23.55;100.00;100736.91;5056039;28;45497;-85
2023/07/23 10:56:48;;;;;;;;;2.00;2.00;;;;;23.51;100.00;100745.13;5055751;28;45498;-83
2023/07/23 10:59:15;;;;;;;;;5.00;3.33;;;;;23.48;100.00;100741.69;5055854;28;46952;-83
2023/07/23 11:01:45;;;;;;;;;4.33;3.00;;;;;23.49;100.00;100747.03;5056658;28;45605;-83
2023/07/23 11:04:18;;;;;;;;;4.33;3.33;;;;;23.52;100.00;100751.38;5055573;28;45349;-83
2023/07/23 11:06:57;;;;;;;;;2.67;2.67;;;;;23.51;100.00;100749.63;5036418;28;45542;-83
2023/07/23 11:09:33;;;;;;;;;5.67;2.67;;;;;23.50;100.00;100750.59;5052303;28;46019;-84
2023/07/23 11:11:59;;;;;;;;;0.33;0.33;;;;;23.41;100.00;100743.78;5071493;27;45415;-83
2023/07/23 11:14:26;;;;;;;;;3.67;3.00;;;;;23.39;100.00;100756.44;5055488;28;45450;-83
2023/07/23 11:16:54;;;;;;;;;5.00;3.00;;;;;23.40;100.00;100743.84;5054757;28;45419;-83